Accueil
METAR-TAF:

METAR-TAF

Aéroports :

Aéroport de Luxembourg-Findel

Luxembourg, Luxembourg

latitude: 49-37N, longitude: 006-13E, altitude: 376 m

Observation

Le bulletin a été fait il y a 42 minutes, à 00:20 UTC
Vent 8 kt de nord-est
Température 14°C
Humidité 51%
Pression 1027 hPa
Visibilité 10 km ou plus

METAR: ELLX 080020Z AUTO 05008KT 9999 NCD 14/04 Q1027 NOSIG

Heure: 03:02 (01:02 UTC)

Prévision

Le bulletin a été fait il y a 2 heures et 2 minutes, à 23:00 UTC
Prévision valable du 08 à 00 UTC au 09 à 06 UTC
Vent 7 kt de nord-est
Visibilité 10 km ou plus
pas de nuages en-dessous de 1500 mètres et pas de cumulonimbus.
Evoluant progressivement
du 08 à 08 UTC au 08 à 11 UTC
Vent 8 kt de sud/sud-est
Evoluant progressivement
du 08 à 15 UTC au 08 à 18 UTC
Vent 2 kt de direction variable

TAF: ELLX 072300Z 0800/0906 05007KT CAVOK BECMG 0808/0811 15008KT BECMG 0815/0818 VRB02KT

Observations et prévisions météorologiques de plus de 4000 aéroports (messages METAR et TAF).

Les stations disponibles sont représentées par des disques jaunes et rouges sur la carte.

Passer la souris dessus pour voir le nom de la station.

Cliquer dessus pour voir les observations et prévisions météorologiques.

Pour changer de carte: cliquez sur les boutons verts avec une croix noire pour zoomer, sur le bouton vert avec un tiret pour effectuer un zoom arrière, ou sur les flèches vertes pour les cartes adjacentes.


METAR-TAF: